createdAt,value
2023-04-16T00:00:48.543Z,84.26
2023-04-16T00:03:31.822Z,84.17
2023-04-16T00:06:00.727Z,84.14
2023-04-16T00:08:28.639Z,84.18
2023-04-16T00:10:56.627Z,84.02
2023-04-16T00:13:26.251Z,84.03
2023-04-16T00:15:54.402Z,83.91
2023-04-16T00:18:22.431Z,84.24
2023-04-16T00:20:50.904Z,84.23
2023-04-16T00:23:19.000Z,84.39
2023-04-16T00:25:47.049Z,84.43
2023-04-16T00:28:14.958Z,84.48
2023-04-16T00:30:42.899Z,84.63
2023-04-16T00:33:10.967Z,84.73
2023-04-16T00:35:38.945Z,84.57
2023-04-16T00:38:06.942Z,84.42
2023-04-16T00:40:34.924Z,84.41
2023-04-16T00:43:02.896Z,84.36
2023-04-16T00:45:30.934Z,84.45
2023-04-16T00:48:00.838Z,84.63
2023-04-16T00:50:29.637Z,84.94
2023-04-16T00:52:58.345Z,85.20
2023-04-16T00:55:27.641Z,85.48
2023-04-16T00:57:55.687Z,85.53
2023-04-16T01:00:23.878Z,85.73
2023-04-16T01:02:53.737Z,85.67
2023-04-16T01:05:22.279Z,85.83
2023-04-16T01:07:51.347Z,85.78
2023-04-16T01:10:19.369Z,85.64
2023-04-16T01:12:47.323Z,85.39
2023-04-16T01:15:15.364Z,85.27
2023-04-16T01:17:46.284Z,85.25
2023-04-16T01:20:15.319Z,85.19
2023-04-16T01:22:43.503Z,85.41
2023-04-16T01:25:15.836Z,85.46
2023-04-16T01:27:43.878Z,85.59
2023-04-16T01:30:12.055Z,85.60
2023-04-16T01:32:51.696Z,85.43
2023-04-16T01:35:19.786Z,85.54
2023-04-16T01:37:50.314Z,85.37
2023-04-16T01:40:18.740Z,85.12
2023-04-16T01:42:46.807Z,84.95
2023-04-16T01:45:14.835Z,84.75
2023-04-16T01:47:42.952Z,84.42
2023-04-16T01:50:11.685Z,84.22
2023-04-16T01:52:39.874Z,83.95
2023-04-16T01:55:08.231Z,83.93
2023-04-16T01:57:36.291Z,83.59
2023-04-16T02:00:06.407Z,83.41
2023-04-16T02:02:35.570Z,82.98
2023-04-16T02:05:04.026Z,82.73
2023-04-16T02:07:32.118Z,82.58
2023-04-16T02:10:00.057Z,82.53
2023-04-16T02:12:29.920Z,82.25
2023-04-16T02:14:58.262Z,82.33
2023-04-16T02:17:28.141Z,82.20
2023-04-16T02:20:09.551Z,82.04
2023-04-16T02:22:40.995Z,81.88
2023-04-16T02:25:09.249Z,81.64
2023-04-16T02:27:37.547Z,81.75
2023-04-16T02:30:18.112Z,81.89
2023-04-16T02:32:46.198Z,82.19
2023-04-16T02:35:14.829Z,82.44
2023-04-16T02:37:43.002Z,82.55
2023-04-16T02:40:11.710Z,82.52
2023-04-16T02:42:39.757Z,82.40
2023-04-16T02:45:09.269Z,82.46
2023-04-16T02:47:37.449Z,82.55
2023-04-16T02:50:06.400Z,82.66
2023-04-16T02:52:34.480Z,82.82
2023-04-16T02:55:02.792Z,82.73
2023-04-16T02:57:30.848Z,82.67
2023-04-16T02:59:59.382Z,82.53
2023-04-16T03:02:27.581Z,82.44
2023-04-16T03:04:56.047Z,82.51
2023-04-16T03:07:24.524Z,82.38
2023-04-16T03:09:52.399Z,82.27
2023-04-16T03:12:20.457Z,82.19
2023-04-16T03:14:51.574Z,82.29
2023-04-16T03:17:19.473Z,82.36
2023-04-16T03:19:47.661Z,82.70
2023-04-16T03:22:16.051Z,83.06
2023-04-16T03:24:44.016Z,83.15
2023-04-16T03:27:12.103Z,83.56
2023-04-16T03:29:40.171Z,83.84
2023-04-16T03:32:08.149Z,84.08
2023-04-16T03:34:37.112Z,84.46
2023-04-16T03:37:06.332Z,84.53
2023-04-16T03:39:34.860Z,84.88
2023-04-16T03:42:03.802Z,85.22
2023-04-16T03:44:31.693Z,85.38
2023-04-16T03:46:59.618Z,85.92
2023-04-16T03:49:27.863Z,85.80
2023-04-16T03:51:55.930Z,86.10
2023-04-16T03:54:23.999Z,86.10
2023-04-16T03:56:57.538Z,86.27
2023-04-16T03:59:25.835Z,86.23
2023-04-16T04:01:54.086Z,86.28
2023-04-16T04:04:22.369Z,86.42
2023-04-16T04:06:50.495Z,86.57
2023-04-16T04:09:18.609Z,86.62
2023-04-16T04:11:47.695Z,86.49
2023-04-16T04:14:15.830Z,86.37
2023-04-16T04:16:43.925Z,86.43
2023-04-16T04:19:12.245Z,86.32
2023-04-16T04:21:40.709Z,86.12
2023-04-16T04:24:10.493Z,86.03
2023-04-16T04:26:38.517Z,85.88
2023-04-16T04:29:06.658Z,85.70
2023-04-16T04:31:36.013Z,85.75
2023-04-16T04:34:04.297Z,85.80
2023-04-16T04:36:32.455Z,85.64
2023-04-16T04:39:02.045Z,85.39
2023-04-16T04:41:30.421Z,85.32
2023-04-16T04:43:58.378Z,85.04
2023-04-16T04:46:26.609Z,84.70
2023-04-16T04:48:54.664Z,84.66
2023-04-16T04:51:22.640Z,84.33
2023-04-16T04:53:50.560Z,84.02
2023-04-16T04:56:18.573Z,83.70
2023-04-16T04:58:46.636Z,83.42
2023-04-16T05:01:14.636Z,82.88
2023-04-16T05:03:42.757Z,82.37
2023-04-16T05:06:10.829Z,82.03
2023-04-16T05:08:38.818Z,81.44
2023-04-16T05:11:06.705Z,81.03
2023-04-16T05:13:34.658Z,81.20
2023-04-16T05:16:02.624Z,80.55
2023-04-16T05:18:31.221Z,79.54
2023-04-16T05:20:59.286Z,79.44
2023-04-16T05:23:27.274Z,78.86
2023-04-16T05:25:55.419Z,78.79
2023-04-16T05:28:23.482Z,78.55
2023-04-16T05:30:51.754Z,78.53
2023-04-16T05:33:19.801Z,77.92
2023-04-16T05:35:47.819Z,77.24
2023-04-16T05:38:15.884Z,77.12
2023-04-16T05:40:43.762Z,77.14
2023-04-16T05:43:11.736Z,77.46
2023-04-16T05:45:41.394Z,77.51
2023-04-16T05:48:10.170Z,76.97
2023-04-16T05:50:38.742Z,76.98
2023-04-16T05:53:08.572Z,76.74
2023-04-16T05:55:39.471Z,77.11
2023-04-16T05:58:07.490Z,76.60
2023-04-16T06:00:36.069Z,76.70
2023-04-16T06:03:04.624Z,75.97
2023-04-16T06:05:32.831Z,75.88
2023-04-16T06:08:01.170Z,75.90
2023-04-16T06:10:29.476Z,76.32
2023-04-16T06:12:57.404Z,76.89
2023-04-16T06:15:25.327Z,76.19
2023-04-16T06:17:54.924Z,76.38
2023-04-16T06:20:23.000Z,75.87
2023-04-16T06:22:51.096Z,75.59
2023-04-16T06:25:19.058Z,73.93
2023-04-16T06:27:47.080Z,73.52
2023-04-16T06:30:16.407Z,73.51
2023-04-16T06:32:44.852Z,72.88
2023-04-16T06:35:12.927Z,71.07
2023-04-16T06:37:41.533Z,70.63
2023-04-16T06:40:10.174Z,69.69
2023-04-16T06:42:38.371Z,69.76
2023-04-16T06:45:07.594Z,68.45
2023-04-16T06:47:35.818Z,68.61
2023-04-16T06:50:04.037Z,68.84
2023-04-16T06:52:32.145Z,69.24
2023-04-16T06:55:00.260Z,67.12
2023-04-16T06:57:28.183Z,66.19
2023-04-16T06:59:56.364Z,66.30
2023-04-16T07:02:24.556Z,66.27
2023-04-16T07:04:52.726Z,65.34
2023-04-16T07:07:20.788Z,64.78
2023-04-16T07:09:48.842Z,64.11
2023-04-16T07:12:16.960Z,64.50
2023-04-16T07:14:44.893Z,65.17
2023-04-16T07:17:12.812Z,65.26
2023-04-16T07:19:41.073Z,65.59
2023-04-16T07:22:08.949Z,65.83
2023-04-16T07:24:36.898Z,65.34
2023-04-16T07:27:04.866Z,65.52
2023-04-16T07:29:33.489Z,65.63
2023-04-16T07:32:01.712Z,65.53
2023-04-16T07:34:29.803Z,65.04
2023-04-16T07:36:57.565Z,64.87
2023-04-16T07:39:25.451Z,65.34
2023-04-16T07:41:53.289Z,65.35
2023-04-16T07:44:21.313Z,64.85
2023-04-16T07:46:49.172Z,64.49
2023-04-16T07:49:17.361Z,63.17
2023-04-16T07:51:45.480Z,62.33
2023-04-16T07:54:13.417Z,63.20
2023-04-16T07:56:41.397Z,61.82
2023-04-16T07:59:22.112Z,59.83
2023-04-16T08:01:53.968Z,58.43
2023-04-16T08:04:25.661Z,58.04
2023-04-16T08:06:54.491Z,59.26
2023-04-16T08:09:24.343Z,58.19
2023-04-16T08:11:52.299Z,56.94
2023-04-16T08:14:20.389Z,57.57
2023-04-16T08:16:50.046Z,56.00
2023-04-16T08:19:18.202Z,56.76
2023-04-16T08:21:47.350Z,55.39
2023-04-16T08:24:15.693Z,55.69
2023-04-16T08:26:43.790Z,55.29
2023-04-16T08:29:11.962Z,56.27
2023-04-16T08:31:41.421Z,57.21
2023-04-16T08:34:11.564Z,57.32
2023-04-16T08:36:41.037Z,57.20
2023-04-16T08:39:09.611Z,57.58
2023-04-16T08:41:42.420Z,57.24
2023-04-16T08:44:19.885Z,55.46
2023-04-16T08:46:48.747Z,57.11
2023-04-16T08:49:18.338Z,56.22
2023-04-16T08:51:59.151Z,55.37
2023-04-16T08:54:32.675Z,55.30
2023-04-16T08:57:05.859Z,52.88
2023-04-16T08:59:34.731Z,50.72
2023-04-16T09:02:03.070Z,50.21
2023-04-16T09:04:32.701Z,50.36
2023-04-16T09:07:05.395Z,51.22
2023-04-16T09:09:34.699Z,50.85
2023-04-16T09:12:03.374Z,48.31
2023-04-16T09:14:31.306Z,47.28
2023-04-16T09:17:02.520Z,46.30
2023-04-16T09:19:30.743Z,46.87
2023-04-16T09:21:58.825Z,48.77
2023-04-16T09:24:27.133Z,49.06
2023-04-16T09:26:55.212Z,47.88
2023-04-16T09:29:43.475Z,47.46
2023-04-16T09:32:12.367Z,47.21
2023-04-16T09:35:00.676Z,45.46
2023-04-16T09:37:30.518Z,41.85
2023-04-16T09:40:00.852Z,39.81
2023-04-16T09:42:31.777Z,40.41
2023-04-16T09:45:03.327Z,40.60
2023-04-16T09:47:42.111Z,42.25
2023-04-16T09:50:18.749Z,41.88
2023-04-16T09:52:53.946Z,41.53
2023-04-16T09:55:27.798Z,40.95
2023-04-16T09:58:01.278Z,39.50
2023-04-16T10:00:31.513Z,39.65
2023-04-16T10:03:07.347Z,40.94
2023-04-16T10:05:37.066Z,42.82
2023-04-16T10:08:12.255Z,43.31
2023-04-16T10:10:43.617Z,42.98
2023-04-16T10:13:12.987Z,42.85
2023-04-16T10:15:42.093Z,43.57
2023-04-16T10:18:11.563Z,43.82
2023-04-16T10:20:39.759Z,43.40
2023-04-16T10:23:07.967Z,42.79
2023-04-16T10:25:36.610Z,42.44
2023-04-16T10:28:05.566Z,41.19
2023-04-16T10:30:33.963Z,41.58
2023-04-16T10:33:07.868Z,41.83
2023-04-16T10:35:40.555Z,41.26
2023-04-16T10:38:28.550Z,40.51
2023-04-16T10:41:02.223Z,40.80
2023-04-16T10:43:31.870Z,40.55
2023-04-16T10:46:32.985Z,40.25
2023-04-16T10:49:03.253Z,40.49
2023-04-16T10:51:34.632Z,40.23
2023-04-16T10:54:28.510Z,39.35
2023-04-16T10:57:04.446Z,39.51
2023-04-16T10:59:35.684Z,38.79
2023-04-16T11:02:16.607Z,38.82
2023-04-16T11:04:46.468Z,38.91
2023-04-16T11:07:32.192Z,38.87
2023-04-16T11:10:04.406Z,38.61
2023-04-16T11:12:37.920Z,38.29
2023-04-16T11:15:10.750Z,38.47
2023-04-16T11:17:43.064Z,38.62
2023-04-16T11:20:19.018Z,38.08
2023-04-16T11:22:53.735Z,38.14
2023-04-16T11:25:27.337Z,38.35
2023-04-16T11:27:57.069Z,37.65
2023-04-16T11:30:34.137Z,37.67
2023-04-16T11:33:03.838Z,37.61
2023-04-16T11:35:32.493Z,37.66
2023-04-16T11:38:00.690Z,37.55
2023-04-16T11:40:31.854Z,36.85
2023-04-16T11:43:12.632Z,36.45
2023-04-16T11:45:56.256Z,36.82
2023-04-16T11:48:24.528Z,36.91
2023-04-16T11:50:59.293Z,36.69
2023-04-16T11:53:27.344Z,35.79
2023-04-16T11:55:55.419Z,35.91
2023-04-16T11:58:23.659Z,36.23
2023-04-16T12:00:56.969Z,36.45
2023-04-16T12:03:46.186Z,36.45
2023-04-16T12:06:15.526Z,36.82
2023-04-16T12:08:43.498Z,37.20
2023-04-16T12:11:11.483Z,37.30
2023-04-16T12:13:40.314Z,36.90
2023-04-16T12:16:21.209Z,36.37
2023-04-16T12:19:01.720Z,36.69
2023-04-16T12:22:00.863Z,36.77
2023-04-16T12:24:32.353Z,36.93
2023-04-16T12:27:03.192Z,37.19
2023-04-16T12:29:31.996Z,37.58
2023-04-16T12:32:00.080Z,38.07
2023-04-16T12:34:48.525Z,38.17
2023-04-16T12:37:16.679Z,37.52
2023-04-16T12:39:45.477Z,37.04
2023-04-16T12:42:14.937Z,37.16
2023-04-16T12:44:42.939Z,37.62
2023-04-16T12:47:11.424Z,37.88
2023-04-16T12:49:39.463Z,37.66
2023-04-16T12:52:07.717Z,37.91
2023-04-16T12:54:35.805Z,37.47
2023-04-16T12:57:03.921Z,37.47
2023-04-16T12:59:31.997Z,37.69
2023-04-16T13:02:01.645Z,37.66
2023-04-16T13:04:30.095Z,37.45
2023-04-16T13:06:58.214Z,37.45
2023-04-16T13:09:27.104Z,36.54
2023-04-16T13:11:55.114Z,36.83
2023-04-16T13:14:23.110Z,36.57
2023-04-16T13:16:50.971Z,36.72
2023-04-16T13:19:19.362Z,36.75
2023-04-16T13:21:47.319Z,36.75
2023-04-16T13:24:15.568Z,36.72
2023-04-16T13:26:43.603Z,37.30
2023-04-16T13:29:11.908Z,37.23
2023-04-16T13:31:40.367Z,36.72
2023-04-16T13:34:08.269Z,36.27
2023-04-16T13:36:36.154Z,35.89
2023-04-16T13:39:05.427Z,36.02
2023-04-16T13:41:33.395Z,36.17
2023-04-16T13:44:01.311Z,36.03
2023-04-16T13:46:29.596Z,36.44
2023-04-16T13:48:57.818Z,37.64
2023-04-16T13:51:27.214Z,38.97
2023-04-16T13:53:57.982Z,39.62
2023-04-16T13:56:26.061Z,40.10
2023-04-16T13:58:54.068Z,40.20
2023-04-16T14:01:22.084Z,40.12
2023-04-16T14:03:50.196Z,40.77
2023-04-16T14:06:18.407Z,41.33
2023-04-16T14:08:46.423Z,42.11
2023-04-16T14:11:14.409Z,42.23
2023-04-16T14:13:42.352Z,42.43
2023-04-16T14:16:10.793Z,43.14
2023-04-16T14:18:42.485Z,43.74
2023-04-16T14:21:10.752Z,43.56
2023-04-16T14:23:38.715Z,43.76
2023-04-16T14:26:06.694Z,43.73
2023-04-16T14:28:35.865Z,43.95
2023-04-16T14:31:03.962Z,43.96
2023-04-16T14:33:32.382Z,44.04
2023-04-16T14:36:02.720Z,44.34
2023-04-16T14:38:32.097Z,44.50
2023-04-16T14:41:00.649Z,44.64
2023-04-16T14:43:28.916Z,44.83
2023-04-16T14:45:59.061Z,44.83
2023-04-16T14:48:27.038Z,44.95
2023-04-16T14:50:55.037Z,45.22
2023-04-16T14:53:24.527Z,45.43
2023-04-16T14:55:53.452Z,45.70
2023-04-16T14:58:22.012Z,45.84
2023-04-16T15:00:49.966Z,45.87
2023-04-16T15:03:18.188Z,45.69
2023-04-16T15:05:50.875Z,45.31
2023-04-16T15:08:18.772Z,45.39
2023-04-16T15:10:46.736Z,45.66
2023-04-16T15:13:14.779Z,45.62
2023-04-16T15:15:43.977Z,45.86
2023-04-16T15:18:12.151Z,45.83
2023-04-16T15:20:40.159Z,45.92
2023-04-16T15:23:08.241Z,45.75
2023-04-16T15:25:36.245Z,45.71
2023-04-16T15:28:04.527Z,45.72
2023-04-16T15:30:32.486Z,45.61
2023-04-16T15:33:00.784Z,45.54
2023-04-16T15:35:28.850Z,45.59
2023-04-16T15:37:56.919Z,45.62
2023-04-16T15:40:25.240Z,45.43
2023-04-16T15:42:56.023Z,45.45
2023-04-16T15:45:24.127Z,45.38
2023-04-16T15:47:52.296Z,45.29
2023-04-16T15:50:20.987Z,45.22
2023-04-16T15:52:49.214Z,45.15
2023-04-16T15:55:18.270Z,44.91
2023-04-16T15:57:46.526Z,45.12
2023-04-16T16:00:17.214Z,45.06
2023-04-16T16:02:47.161Z,45.02
2023-04-16T16:05:17.004Z,45.04
2023-04-16T16:07:45.597Z,45.03
2023-04-16T16:10:13.708Z,44.86
2023-04-16T16:12:41.926Z,44.92
2023-04-16T16:15:11.314Z,44.51
2023-04-16T16:17:40.696Z,44.81
2023-04-16T16:20:10.849Z,44.73
2023-04-16T16:22:40.257Z,44.56
2023-04-16T16:25:10.247Z,44.88
2023-04-16T16:27:38.254Z,45.38
2023-04-16T16:30:07.743Z,45.29
2023-04-16T16:32:36.041Z,45.16
2023-04-16T16:35:04.441Z,45.11
2023-04-16T16:37:32.481Z,45.28
2023-04-16T16:40:00.770Z,45.25
2023-04-16T16:42:28.969Z,45.17
2023-04-16T16:44:57.629Z,45.18
2023-04-16T16:47:26.257Z,46.02
2023-04-16T16:49:54.837Z,45.57
2023-04-16T16:52:24.314Z,46.29
2023-04-16T16:54:56.913Z,46.73
2023-04-16T16:57:25.023Z,46.65
2023-04-16T16:59:54.484Z,47.40
2023-04-16T17:02:23.246Z,48.97
2023-04-16T17:04:52.802Z,48.65
2023-04-16T17:07:20.977Z,48.78
2023-04-16T17:09:48.889Z,48.96
2023-04-16T17:12:16.802Z,48.83
2023-04-16T17:14:44.796Z,48.14
2023-04-16T17:17:12.853Z,48.06
2023-04-16T17:19:40.821Z,48.00
2023-04-16T17:22:11.856Z,47.52
2023-04-16T17:24:39.827Z,47.47
2023-04-16T17:27:07.694Z,47.27
2023-04-16T17:29:35.968Z,47.82
2023-04-16T17:32:04.286Z,47.94
2023-04-16T17:34:32.196Z,48.06
2023-04-16T17:37:00.432Z,48.27
2023-04-16T17:39:28.383Z,48.49
2023-04-16T17:41:58.729Z,48.69
2023-04-16T17:44:28.034Z,49.05
2023-04-16T17:46:56.102Z,49.39
2023-04-16T17:49:24.133Z,49.68
2023-04-16T17:51:54.069Z,49.79
2023-04-16T17:54:21.997Z,49.86
2023-04-16T17:56:49.912Z,49.88
2023-04-16T17:59:17.843Z,49.86
2023-04-16T18:01:46.020Z,49.82
2023-04-16T18:04:14.328Z,49.79
2023-04-16T18:06:42.544Z,49.83
2023-04-16T18:09:10.666Z,49.66
2023-04-16T18:11:38.622Z,49.60
2023-04-16T18:14:06.540Z,49.67
2023-04-16T18:16:34.578Z,50.07
2023-04-16T18:19:02.517Z,50.47
2023-04-16T18:21:31.645Z,50.90
2023-04-16T18:24:01.066Z,51.29
2023-04-16T18:26:30.072Z,51.24
2023-04-16T18:29:06.815Z,51.02
2023-04-16T18:31:34.733Z,51.29
2023-04-16T18:34:03.046Z,51.32
2023-04-16T18:36:31.608Z,51.43
2023-04-16T18:39:02.123Z,51.65
2023-04-16T18:41:31.394Z,51.99
2023-04-16T18:43:59.442Z,52.17
2023-04-16T18:46:27.635Z,52.26
2023-04-16T18:48:56.035Z,52.39
2023-04-16T18:51:25.161Z,52.46
2023-04-16T18:53:53.212Z,52.53
2023-04-16T18:56:21.792Z,52.64
2023-04-16T18:58:49.696Z,52.68
2023-04-16T19:01:18.409Z,52.82
2023-04-16T19:03:46.519Z,52.92
2023-04-16T19:06:14.748Z,53.02
2023-04-16T19:08:42.613Z,53.61
2023-04-16T19:11:10.718Z,53.56
2023-04-16T19:13:39.441Z,53.55
2023-04-16T19:16:11.642Z,53.36
2023-04-16T19:18:39.943Z,53.43
2023-04-16T19:21:10.133Z,53.59
2023-04-16T19:23:38.167Z,53.67
2023-04-16T19:26:06.380Z,53.52
2023-04-16T19:28:34.351Z,53.23
2023-04-16T19:31:02.257Z,53.06
2023-04-16T19:33:31.439Z,53.30
2023-04-16T19:36:00.518Z,53.58
2023-04-16T19:38:29.177Z,54.22
2023-04-16T19:40:57.195Z,54.51
2023-04-16T19:43:25.444Z,54.74
2023-04-16T19:45:54.315Z,54.92
2023-04-16T19:48:22.468Z,55.39
2023-04-16T19:50:52.807Z,56.31
2023-04-16T19:53:21.631Z,56.75
2023-04-16T19:55:50.065Z,56.86
2023-04-16T19:58:21.324Z,57.27
2023-04-16T20:00:49.396Z,57.24
2023-04-16T20:03:18.188Z,58.03
2023-04-16T20:05:49.656Z,57.71
2023-04-16T20:08:17.730Z,58.22
2023-04-16T20:10:46.015Z,58.65
2023-04-16T20:13:16.097Z,58.31
2023-04-16T20:15:54.091Z,58.55
2023-04-16T20:18:25.982Z,58.39
2023-04-16T20:20:54.888Z,58.18
2023-04-16T20:23:22.822Z,58.21
2023-04-16T20:25:52.336Z,57.74
2023-04-16T20:28:21.622Z,57.24
2023-04-16T20:30:52.113Z,56.91
2023-04-16T20:33:20.417Z,56.93
2023-04-16T20:35:49.238Z,56.96
2023-04-16T20:38:18.407Z,57.22
2023-04-16T20:40:47.275Z,57.32
2023-04-16T20:43:18.759Z,57.33
2023-04-16T20:45:46.983Z,57.38
2023-04-16T20:48:15.049Z,57.59
2023-04-16T20:50:43.159Z,57.67
2023-04-16T20:53:11.173Z,57.84
2023-04-16T20:55:39.206Z,58.13
2023-04-16T20:58:07.204Z,58.34
2023-04-16T21:00:35.320Z,58.62
2023-04-16T21:03:06.618Z,58.76
2023-04-16T21:05:34.722Z,58.96
2023-04-16T21:08:03.168Z,58.83
2023-04-16T21:10:32.582Z,58.95
2023-04-16T21:13:00.672Z,59.13
2023-04-16T21:15:28.665Z,59.17
2023-04-16T21:18:00.181Z,59.09
2023-04-16T21:20:30.641Z,59.19
2023-04-16T21:22:59.240Z,59.20
2023-04-16T21:25:27.354Z,59.21
2023-04-16T21:27:55.653Z,59.46
2023-04-16T21:30:23.716Z,59.86
2023-04-16T21:32:51.785Z,60.23
2023-04-16T21:35:19.900Z,60.57
2023-04-16T21:37:47.993Z,60.73
2023-04-16T21:40:16.241Z,60.87
2023-04-16T21:42:44.624Z,61.23
2023-04-16T21:45:14.628Z,61.53
2023-04-16T21:47:42.776Z,61.75
2023-04-16T21:50:11.963Z,62.19
2023-04-16T21:52:40.585Z,62.75
2023-04-16T21:55:09.953Z,63.07
2023-04-16T21:57:40.761Z,63.53
2023-04-16T22:00:13.761Z,63.90
2023-04-16T22:02:43.252Z,64.16
2023-04-16T22:05:11.762Z,64.67
2023-04-16T22:07:39.970Z,64.98
2023-04-16T22:10:09.149Z,65.40
2023-04-16T22:12:40.102Z,65.82
2023-04-16T22:15:09.217Z,66.20
2023-04-16T22:17:37.326Z,66.56
2023-04-16T22:20:09.419Z,67.05
2023-04-16T22:22:37.690Z,67.15
2023-04-16T22:25:06.366Z,67.36
2023-04-16T22:27:34.572Z,67.62
2023-04-16T22:30:03.980Z,67.96
2023-04-16T22:32:33.218Z,68.11
2023-04-16T22:35:02.144Z,68.25
2023-04-16T22:37:30.130Z,68.38
2023-04-16T22:39:58.235Z,68.81
2023-04-16T22:42:26.362Z,68.98
2023-04-16T22:44:54.352Z,69.14
2023-04-16T22:47:22.698Z,69.32
2023-04-16T22:49:50.945Z,69.37
2023-04-16T22:52:18.869Z,69.52
2023-04-16T22:54:46.875Z,69.61
2023-04-16T22:57:14.945Z,69.65
2023-04-16T22:59:42.893Z,69.72
2023-04-16T23:02:10.860Z,69.78
2023-04-16T23:04:38.786Z,69.91
2023-04-16T23:07:06.930Z,70.10
2023-04-16T23:09:34.969Z,70.32
2023-04-16T23:12:03.046Z,70.50
2023-04-16T23:14:31.622Z,70.79
2023-04-16T23:16:59.876Z,71.07
2023-04-16T23:19:27.974Z,71.25
2023-04-16T23:21:56.149Z,71.42
2023-04-16T23:24:24.327Z,71.65
2023-04-16T23:26:52.814Z,72.09
2023-04-16T23:29:21.006Z,72.23
2023-04-16T23:31:49.048Z,72.53
2023-04-16T23:34:17.006Z,72.92
2023-04-16T23:36:45.137Z,73.26
2023-04-16T23:39:13.276Z,73.59
2023-04-16T23:41:41.530Z,73.93
2023-04-16T23:44:09.616Z,74.46
2023-04-16T23:46:39.006Z,74.34
2023-04-16T23:49:07.067Z,74.95
2023-04-16T23:51:35.063Z,75.25
2023-04-16T23:54:03.116Z,75.42
2023-04-16T23:56:31.447Z,75.63
2023-04-16T23:58:59.467Z,75.79
